Vista (821, 693) Station Data

Red Flag Warning: No
Fire Weather Zone: 243
SDGE Region: North Coast
Lat/Lon: 33.205/-117.254

Observations

Time Wind Speed/Gust Temp(F) RH Fuel Moist Fuel Temp(F) Dewpt(F) Tmax(F) Tmin(F) Accum Precip 10-min Precip SL Press(mb)
6/27 4:50pm 200 5 G 10 77° 57% - - 61° 85.8° 59.6° - - -
6/27 4:40pm 205 4 G 9 77° 57% - - 61° 85.8° 59.6° - - -
6/27 4:30pm 205 5 G 10 77° 56% - - 60° 85.8° 59.6° - - -
6/27 4:20pm 202 6 G 11 76° 55% - - 59° 85.8° 59.6° - - -
6/27 4:10pm 202 6 G 10 76° 56% - - 59° 85.8° 59.6° - - -
6/27 4:00pm 199 7 G 12 77° 55% - - 59° 85.8° 59.6° - - -
6/27 3:50pm 202 6 G 10 77° 52% - - 58° 85.8° 59.6° - - -
6/27 3:40pm 208 7 G 12 78° 50% - - 58° 85.8° 59.6° - - -
6/27 3:30pm 198 6 G 12 79° 48% - - 58° 85.8° 59.6° - - -
6/27 3:20pm 186 7 G 10 79° 48% - - 58° 85.8° 59.6° - - -
6/27 3:10pm 205 5 G 10 79° 48% - - 58° 85.8° 59.6° - - -
6/27 3:00pm 204 6 G 10 79° 49% - - 58° 85.8° 59.6° - - -
6/27 2:50pm 197 7 G 14 79° 49% - - 59° 85.8° 59.6° - - -
6/27 2:40pm 228 5 G 12 81° 49% - - 59° 85.8° 59.6° - - -
6/27 2:30pm 229 5 G 11 80° 50% - - 60° 85.8° 59.6° - - -
6/27 2:20pm 239 5 G 10 79° 51% - - 59° 85.8° 59.6° - - -
6/27 2:10pm 239 5 G 11 79° 50% - - 59° 85.8° 59.6° - - -
6/27 2:00pm 227 6 G 11 79° 50% - - 59° 85.8° 59.6° - - -
6/27 1:50pm 239 5 G 10 80° 50% - - 59° 85.8° 59.6° - - -
6/27 1:40pm 237 5 G 10 80° 49% - - 59° 85.8° 59.6° - - -
6/27 1:30pm 235 5 G 13 81° 49% - - 60° 85.8° 59.6° - - -
6/27 1:20pm 228 5 G 10 82° 48% - - 60° 85.8° 59.6° - - -
6/27 1:10pm 219 5 G 10 82° 47% - - 60° 85.8° 59.6° - - -
6/27 1:00pm 243 4 G 9 82° 48% - - 60° 85.8° 59.6° - - -
6/27 12:50pm 237 5 G 11 82° 48% - - 60° 85.8° 59.6° - - -
6/27 12:40pm 240 5 G 10 82° 48% - - 60° 85.8° 59.6° - - -
6/27 12:30pm 207 6 G 11 82° 45% - - 58° 85.8° 59.6° - - -
6/27 12:20pm 223 5 G 10 82° 45% - - 59° 85.8° 59.6° - - -
6/27 12:10pm 223 5 G 10 81° 47% - - 59° 85.8° 59.6° - - -
6/27 12:00pm 223 4 G 10 81° 45% - - 58° 85.8° 59.6° - - -
6/27 11:50am 218 5 G 10 81° 45% - - 58° 85.8° 59.6° - - -
6/27 11:40am 246 5 G 11 81° 48% - - 59° 85.8° 59.6° - - -
6/27 11:30am 220 5 G 11 83° 46% - - 60° 85.8° 59.6° - - -
6/27 11:20am 227 5 G 12 83° 41% - - 57° 85.8° 59.6° - - -
6/27 11:10am 214 6 G 11 85° 38% - - 56° 85.8° 59.6° - - -
6/27 11:00am 226 4 G 9 84° 38% - - 56° 85.4° 59.6° - - -
6/27 10:50am 228 3 G 6 85° 39% - - 57° 85.4° 59.6° - - -
6/27 10:40am 248 3 G 6 84° 42% - - 58° 84.8° 59.6° - - -
6/27 10:30am 291 3 G 6 83° 43% - - 58° 84.2° 59.6° - - -
6/27 10:20am 256 2 G 5 83° 42% - - 58° 84.2° 59.6° - - -
6/27 10:10am 249 2 G 5 82° 41% - - 56° 83° 59.6° - - -
6/27 10:00am 279 2 G 4 81° 41% - - 55° 82° 59.6° - - -
6/27 9:50am 224 2 G 4 81° 41% - - 55° 81.7° 59.6° - - -
6/27 9:40am 205 4 G 6 80° 41% - - 55° 81° 59.6° - - -
6/27 9:30am 203 3 G 6 80° 42% - - 55° 80.7° 59.6° - - -
6/27 9:20am 255 2 G 4 79° 44% - - 56° 80.1° 59.6° - - -
6/27 9:10am 272 2 G 5 78° 44% - - 54° 79.1° 59.6° - - -
6/27 8:50am 286 2 G 4 75° 53% - - 57° 76.1° 59.6° - - -
6/27 8:40am 278 2 G 6 75° 56% - - 58° 75.5° 59.6° - - -
6/27 8:30am 226 1 G 4 74° 58% - - 58° 74.8° 59.6° - - -
6/27 8:20am 242 1 G 3 72° 62% - - 59° 73.2° 59.6° - - -
6/27 8:10am 258 1 G 3 72° 63% - - 59° 72.6° 59.6° - - -
6/27 8:00am 237 1 G 3 71° 62% - - 58° 72.1° 59.6° - - -
6/27 7:40am 234 0 G 1 71° 60% - - 56° 71.3° 59.6° - - -
6/27 7:30am 302 0 G 1 69° 65% - - 57° 70.6° 59.6° - - -
6/27 7:20am 272 1 G 3 69° 66% - - 57° 69.8° 59.6° - - -
6/27 7:10am 337 0 G 1 68° 64% - - 56° 69.8° 59.6° - - -
6/27 7:00am 330 0 G 1 68° 64% - - 55° 68.4° 59.6° - - -
6/27 6:50am 204 0 G 2 66° 66% - - 55° 68.1° 59.6° - - -
6/27 6:40am 180 0 G 2 64° 71% - - 54° 67.1° 59.6° - - -
6/27 6:30am 179 0 G 1 62° 73% - - 54° 67.1° 59.6° - - -
6/27 6:20am 0 0 G 2 61° 76% - - 53° 67.1° 59.6° - - -
6/27 6:10am 70 0 G 1 61° 76% - - 53° 67.1° 59.6° - - -
6/27 6:00am 27 1 G 1 60° 78% - - 53° 67.1° 59.6° - - -
6/27 5:50am 352 0 G 1 60° 79% - - 53° 67.1° 59.6° - - -
6/27 5:40am 304 0 G 1 60° 79% - - 54° 67.1° 59.7° - - -
6/27 5:30am 210 1 G 2 61° 78% - - 54° 67.1° 60.2° - - -
6/27 5:20am 326 1 G 1 61° 76% - - 53° 67.1° 60.5° - - -
6/27 5:10am 44 0 G 1 62° 72% - - 53° 67.1° 61.1° - - -
6/27 5:00am 89 0 G 1 62° 72% - - 52° 67.1° 61.2° - - -
6/27 4:50am 84 0 G 1 62° 73% - - 53° 67.1° 61.3° - - -
6/27 4:40am 86 1 G 1 62° 76% - - 54° 67.1° 61.3° - - -
6/27 4:30am 65 0 G 1 62° 76% - - 54° 67.1° 61.3° - - -
6/27 4:20am 13 1 G 1 62° 78% - - 55° 67.1° 61.4° - - -
6/27 4:10am 62 0 G 1 62° 76% - - 55° 67.1° 61.7° - - -
6/27 4:00am 56 1 G 2 62° 78% - - 55° 67.1° 61.7° - - -
6/27 3:50am 78 1 G 2 63° 78% - - 56° 67.1° 61.7° - - -
6/27 3:40am 22 1 G 2 62° 79% - - 56° 67.1° 61.7° - - -
6/27 3:30am 359 1 G 3 62° 80% - - 56° 67.1° 61.7° - - -
6/27 3:20am 351 0 G 1 62° 80% - - 56° 67.1° 61.9° - - -
6/27 3:10am 354 0 G 2 63° 81% - - 57° 67.1° 62.3° - - -
6/27 3:00am 198 0 G 2 63° 82% - - 57° 67.1° 62.5° - - -
6/27 2:50am 0 0 G 0 63° 83% - - 58° 67.1° 62.6° - - -
6/27 2:40am 216 0 G 1 64° 82% - - 58° 67.1° 63.3° - - -
6/27 2:30am 314 1 G 2 64° 84% - - 59° 67.1° 63.7° - - -
6/27 2:20am 353 0 G 1 64° 85% - - 60° 67.1° 64.1° - - -
6/27 2:10am 3 1 G 1 65° 84% - - 60° 67.1° 64.4° - - -
6/27 2:00am 15 0 G 1 66° 83% - - 60° 67.1° 65.2° - - -
6/27 1:50am 64 0 G 1 66° 83% - - 61° 67.1° 65.2° - - -
6/27 1:40am 11 1 G 2 66° 85% - - 61° 67.1° 65.2° - - -
6/27 1:30am 13 1 G 1 66° 84% - - 61° 67.1° 65.3° - - -
6/27 1:20am 359 0 G 1 66° 83% - - 61° 67.1° 65.7° - - -
6/27 1:10am 83 0 G 1 66° 83% - - 61° 67.1° 65.7° - - -
6/27 1:00am 43 1 G 2 66° 83% - - 61° 67.1° 65.7° - - -
6/27 12:50am 7 1 G 2 66° 83% - - 61° 67.1° 65.9° - - -
6/27 12:40am 3 1 G 2 66° 83% - - 61° 67.1° 65.9° - - -
6/27 12:30am 4 1 G 2 67° 84% - - 61° 67.1° 65.9° - - -
6/27 12:20am 2 1 G 2 67° 84% - - 62° 67.1° 65.9° - - -
6/27 12:10am 357 0 G 2 66° 85% - - 62° 66.8° 65.9° - - -
6/27 12:00am 119 0 G 1 66° 85% - - 62° 86.6° 61.2° - - -
6/26 11:50pm 19 0 G 1 66° 85% - - 62° 86.6° 61.2° - - -
6/26 11:40pm 16 1 G 2 67° 84% - - 62° 86.6° 61.2° - - -
6/26 11:30pm 28 1 G 2 67° 84% - - 62° 86.6° 61.2° - - -
6/26 11:20pm 358 1 G 3 67° 84% - - 62° 86.6° 61.2° - - -
6/26 11:10pm 34 2 G 3 67° 83% - - 62° 86.6° 61.2° - - -
6/26 11:00pm 27 1 G 2 68° 82% - - 62° 86.6° 61.2° - - -
6/26 10:50pm 15 2 G 4 69° 78% - - 62° 86.6° 61.2° - - -
6/26 10:40pm 322 2 G 4 70° 75% - - 62° 86.6° 61.2° - - -
6/26 10:30pm 314 1 G 2 70° 75% - - 62° 86.6° 61.2° - - -
6/26 10:20pm 331 0 G 2 70° 76% - - 62° 86.6° 61.2° - - -
6/26 10:10pm 221 1 G 2 70° 75% - - 62° 86.6° 61.2° - - -
6/26 10:00pm 219 0 G 2 70° 75% - - 62° 86.6° 61.2° - - -
6/26 9:50pm 274 1 G 2 71° 74% - - 62° 86.6° 61.2° - - -
6/26 9:40pm 261 1 G 3 71° 74% - - 62° 86.6° 61.2° - - -
6/26 9:30pm 226 2 G 4 71° 73% - - 62° 86.6° 61.2° - - -
6/26 9:20pm 221 3 G 5 71° 73% - - 62° 86.6° 61.2° - - -
6/26 9:10pm 240 1 G 3 71° 71% - - 62° 86.6° 61.2° - - -
6/26 9:00pm 225 2 G 4 72° 70% - - 62° 86.6° 61.2° - - -
6/26 8:50pm 246 2 G 4 73° 66% - - 61° 86.6° 61.2° - - -
6/26 8:40pm 240 2 G 4 74° 64% - - 61° 86.6° 61.2° - - -
6/26 8:30pm 218 2 G 5 74° 63% - - 61° 86.6° 61.2° - - -
6/26 8:20pm 223 2 G 5 75° 61% - - 61° 86.6° 61.2° - - -
6/26 8:10pm 233 1 G 4 76° 60% - - 61° 86.6° 61.2° - - -
6/26 8:00pm 219 2 G 5 77° 59% - - 61° 86.6° 61.2° - - -
6/26 7:50pm 232 2 G 6 78° 55% - - 61° 86.6° 61.2° - - -
6/26 7:40pm 221 2 G 4 79° 53% - - 61° 86.6° 61.2° - - -
6/26 7:30pm 214 3 G 5 80° 51% - - 60° 86.6° 61.2° - - -
6/26 7:20pm 215 3 G 5 81° 49% - - 60° 86.6° 61.2° - - -
6/26 7:10pm 231 3 G 5 81° 46% - - 58° 86.6° 61.2° - - -
6/26 7:00pm 203 3 G 6 81° 45% - - 58° 86.6° 61.2° - - -
6/26 6:50pm 204 3 G 6 82° 45% - - 58° 86.6° 61.2° - - -
6/26 6:40pm 215 3 G 6 82° 43% - - 57° 86.6° 61.2° - - -
6/26 6:30pm 214 4 G 6 82° 43% - - 57° 86.6° 61.2° - - -
6/26 6:20pm 208 4 G 7 82° 41% - - 56° 86.6° 61.2° - - -
6/26 6:10pm 222 4 G 9 82° 40% - - 56° 86.6° 61.2° - - -
6/26 6:00pm 230 3 G 6 82° 41% - - 56° 86.6° 61.2° - - -
6/26 5:50pm 219 4 G 8 82° 41% - - 56° 86.6° 61.2° - - -
6/26 5:40pm 210 4 G 8 83° 39% - - 55° 86.6° 61.2° - - -
6/26 5:30pm 216 3 G 6 83° 39% - - 56° 86.6° 61.2° - - -
6/26 5:20pm 223 3 G 7 84° 39% - - 56° 86.6° 61.2° - - -
6/26 5:10pm 203 5 G 10 83° 40% - - 56° 86.6° 61.2° - - -
6/26 5:00pm 214 5 G 9 84° 40% - - 57° 86.6° 61.2° - - -
6/26 4:50pm 221 5 G 9 84° 40% - - 57° 86.6° 61.2° - - -
6/26 4:40pm 213 4 G 8 85° 38% - - 57° 86.6° 61.2° - - -
6/26 4:30pm 217 4 G 8 85° 37% - - 56° 86.6° 61.2° - - -
6/26 4:20pm 217 3 G 7 85° 37% - - 56° 86.6° 61.2° - - -
6/26 4:10pm 254 3 G 6 85° 37% - - 56° 86.5° 61.2° - - -
6/26 4:00pm 238 3 G 7 85° 38% - - 57° 86.5° 61.2° - - -
6/26 3:50pm 216 5 G 10 84° 38% - - 56° 86.5° 61.2° - - -
6/26 3:40pm 228 4 G 9 85° 38% - - 57° 86.5° 61.2° - - -
6/26 3:30pm 217 4 G 10 84° 40% - - 57° 86.2° 61.2° - - -
6/26 3:20pm 237 4 G 8 84° 39% - - 57° 86.2° 61.2° - - -
6/26 3:10pm 234 4 G 8 85° 40% - - 58° 86.2° 61.2° - - -
6/26 3:00pm 235 4 G 10 83° 43% - - 59° 86.2° 61.2° - - -
6/26 2:50pm 235 5 G 9 84° 43% - - 59° 86.2° 61.2° - - -
6/26 2:40pm 235 4 G 8 83° 43% - - 59° 86.2° 61.2° - - -
6/26 2:30pm 232 4 G 8 85° 45% - - 61° 86.2° 61.2° - - -
6/26 2:20pm 230 4 G 8 84° 45% - - 61° 84.9° 61.2° - - -
6/26 2:10pm 253 5 G 9 84° 45% - - 60° 84.5° 61.2° - - -
6/26 2:00pm 244 4 G 7 84° 45% - - 60° 84.4° 61.2° - - -
6/26 1:50pm 239 4 G 9 83° 46% - - 61° 84.4° 61.2° - - -
6/26 1:40pm 236 4 G 8 83° 47% - - 61° 84.2° 61.2° - - -
6/26 1:30pm 237 5 G 9 82° 49% - - 61° 83.5° 61.2° - - -
6/26 1:20pm 227 4 G 9 82° 51% - - 62° 83.5° 61.2° - - -
6/26 1:10pm 224 5 G 8 82° 51% - - 62° 83.5° 61.2° - - -
6/26 1:00pm 207 5 G 10 82° 51% - - 62° 83.5° 61.2° - - -
6/26 12:50pm 204 6 G 11 81° 52% - - 62° 83.5° 61.2° - - -
6/26 12:40pm 215 5 G 11 81° 51% - - 62° 83.5° 61.2° - - -
6/26 12:30pm 214 6 G 10 81° 52% - - 62° 83.5° 61.2° - - -
6/26 12:20pm 234 5 G 11 80° 53% - - 62° 83.5° 61.2° - - -
6/26 12:10pm 221 6 G 10 81° 52% - - 61° 83.5° 61.2° - - -
6/26 12:00pm 212 5 G 11 80° 51% - - 61° 83.5° 61.2° - - -
6/26 11:50am 212 6 G 11 80° 51% - - 61° 83.5° 61.2° - - -
6/26 11:40am 207 6 G 10 81° 50% - - 61° 83.5° 61.2° - - -
6/26 11:30am 196 5 G 10 81° 50% - - 61° 83.5° 61.2° - - -
6/26 11:20am 221 5 G 10 81° 52% - - 62° 83.5° 61.2° - - -
6/26 11:10am 217 5 G 9 80° 53% - - 62° 83.5° 61.2° - - -
6/26 11:00am 217 5 G 10 81° 51% - - 61° 83.5° 61.2° - - -
6/26 10:50am 214 5 G 10 82° 49% - - 61° 83.5° 61.2° - - -
6/26 10:40am 226 5 G 11 82° 49% - - 61° 83.5° 61.2° - - -
6/26 10:30am 208 5 G 9 82° 49% - - 61° 82.9° 61.2° - - -
6/26 10:20am 214 5 G 9 82° 51% - - 62° 82.6° 61.2° - - -
6/26 10:10am 228 5 G 9 81° 51% - - 62° 82.4° 61.2° - - -
6/26 10:00am 245 4 G 7 81° 53% - - 62° 81.5° 61.2° - - -
6/26 9:50am 227 4 G 7 80° 55% - - 62° 80.9° 61.2° - - -
6/26 9:40am 210 3 G 6 80° 52% - - 61° 80.9° 61.2° - - -
6/26 9:30am 206 3 G 5 79° 52% - - 60° 80.3° 61.2° - - -
6/26 9:20am 237 2 G 7 79° 55% - - 61° 79.8° 61.2° - - -
6/26 9:10am 246 2 G 5 78° 54% - - 60° 78.8° 61.2° - - -
6/26 9:00am 250 2 G 4 78° 53% - - 59° 78.3° 61.2° - - -
6/26 8:50am 238 1 G 3 76° 56% - - 59° 76.9° 61.2° - - -
6/26 8:40am 227 1 G 3 75° 59% - - 60° 76.3° 61.2° - - -
6/26 8:30am 238 1 G 4 74° 62% - - 60° 75.3° 61.2° - - -
6/26 8:20am 230 2 G 4 73° 64% - - 61° 74.3° 61.2° - - -
6/26 8:10am 242 1 G 3 73° 67% - - 61° 73.6° 61.2° - - -
6/26 8:00am 260 1 G 2 71° 69% - - 61° 72° 61.2° - - -
6/26 7:50am 263 1 G 3 70° 71% - - 61° 71.2° 61.2° - - -
6/26 7:40am 216 1 G 3 69° 73% - - 60° 70.1° 61.2° - - -
6/26 7:30am 213 1 G 2 68° 75% - - 60° 69° 61.2° - - -
6/26 7:20am 257 1 G 3 67° 76% - - 60° 67.9° 61.2° - - -
6/26 7:10am 187 1 G 3 67° 77% - - 60° 67.5° 61.2° - - -
6/26 7:00am 294 1 G 2 66° 79% - - 59° 66.7° 61.2° - - -
6/26 6:50am 274 0 G 2 65° 81% - - 59° 66.1° 61.2° - - -
6/26 6:40am 276 1 G 3 64° 83% - - 59° 66.1° 61.2° - - -
6/26 6:30am 307 1 G 3 63° 85% - - 59° 66.1° 61.2° - - -
6/26 6:20am 9 0 G 1 62° 87% - - 58° 66.1° 61.2° - - -
6/26 6:10am 4 1 G 3 62° 88% - - 58° 66.1° 61.2° - - -
6/26 6:00am 2 1 G 2 62° 88% - - 58° 66.1° 61.2° - - -